Ananindeua, Brazil
Current Conditions -  °F | °C
As of 4:00 PM on Friday 24 Oct 2014 (Local Time) from SBBE Reporting Station
Scattered Clouds Scattered Clouds  
Wind Chill: 86°   Ceiling: Unl
Heat Index: 95°   Visibility: 6mi
Dew Point: 75°   Wind: 14mph
Humidity: 70%   Direction: 340°NNW
Pressure: 29.77"   Gusts: NA
Location:  1.38°S, 48.38°W
Report Text: SBBE 241900Z 34012KT 9999 SCT030 30/24 Q1008
Loading
Personal Weather Stations






























Interactive Weather Map
Tropical Storm Tracking
New forecast layout! Learn more

10-Day Weather Forecast

Advertisements
Track Severe Weather on mobile